Time;durP1;ratioP1;P1;durP2;ratioP2;P2;SDS_P1;SDS_P2;PMS_P1;PMS_P2;Temp;Humidity;BMP_temperature;BMP_pressure;BME280_temperature;BME280_humidity;BME280_pressure;Samples;Min_cycle;Max_cycle;Signal;HPM_P1;HPM_P2
2020/12/12 00:05:28;;;;;;;10.30;2.83;;;22.70;43.90;;;;;;21069596;28;20035;-16
2020/12/12 00:15:29;;;;;;;10.00;2.95;;;22.40;44.60;;;;;;21067782;28;20028;-16
2020/12/12 00:25:30;;;;;;;11.75;3.97;;;22.30;45.30;;;;;;21064294;28;20506;-16
2020/12/12 00:35:30;;;;;;;9.20;3.10;;;22.00;46.40;;;;;;21032113;28;20708;-16
2020/12/12 00:45:31;;;;;;;8.40;3.15;;;21.70;47.20;;;;;;21047417;28;20107;-16
2020/12/12 00:55:31;;;;;;;6.38;2.90;;;21.60;47.20;;;;;;21065077;28;20081;-16
2020/12/12 01:05:32;;;;;;;5.95;2.97;;;21.50;47.30;;;;;;21067125;28;20028;-16
2020/12/12 01:15:32;;;;;;;5.72;3.20;;;21.40;47.60;;;;;;21069182;28;20027;-16
2020/12/12 01:25:37;;;;;;;7.43;3.65;;;21.40;47.50;;;;;;21084258;28;20105;-16
2020/12/12 01:35:38;;;;;;;7.07;3.40;;;21.30;47.10;;;;;;21083290;28;20443;-16
2020/12/12 01:45:41;;;;;;;4.95;3.45;;;21.20;46.80;;;;;;21082731;28;20056;-16
2020/12/12 01:55:47;;;;;;;6.65;4.15;;;21.20;46.60;;;;;;21067514;28;20080;-17
2020/12/12 02:05:49;;;;;;;5.82;3.70;;;21.00;46.30;;;;;;21081029;28;20128;-16
2020/12/12 02:15:50;;;;;;;8.98;3.75;;;20.90;46.40;;;;;;21080240;28;20498;-16
2020/12/12 02:25:51;;;;;;;8.10;4.10;;;20.70;46.50;;;;;;21079071;28;20101;-16
2020/12/12 02:35:51;;;;;;;4.40;3.63;;;20.60;46.30;;;;;;21079125;28;20413;-16
2020/12/12 02:45:52;;;;;;;5.57;4.07;;;20.50;46.40;;;;;;21079499;28;20028;-16
2020/12/12 02:55:53;;;;;;;5.65;4.20;;;20.40;46.70;;;;;;21078555;28;20040;-16
2020/12/12 03:05:53;;;;;;;6.70;4.50;;;20.30;46.40;;;;;;21066711;28;20783;-16
2020/12/12 03:15:53;;;;;;;5.38;4.22;;;20.30;46.30;;;;;;21072039;28;20512;-16
2020/12/12 03:25:54;;;;;;;13.52;4.93;;;20.30;46.30;;;;;;21075203;28;20452;-16
2020/12/12 03:35:55;;;;;;;7.97;4.78;;;20.20;46.40;;;;;;21073261;28;20452;-16
2020/12/12 03:45:55;;;;;;;7.38;4.38;;;20.20;45.90;;;;;;21072421;28;20039;-17
2020/12/12 03:55:56;;;;;;;7.22;4.85;;;20.10;45.70;;;;;;21027972;28;20556;-16
2020/12/12 04:05:56;;;;;;;7.13;4.15;;;20.10;45.90;;;;;;21072903;28;20028;-16
2020/12/12 04:15:57;;;;;;;8.48;5.00;;;19.90;46.40;;;;;;21071937;28;20024;-16
2020/12/12 04:25:57;;;;;;;5.80;4.60;;;19.80;46.50;;;;;;21082556;28;20024;-16
2020/12/12 04:35:58;;;;;;;7.50;4.55;;;19.80;46.00;;;;;;21068065;28;20052;-17
2020/12/12 04:45:59;;;;;;;7.15;4.97;;;19.90;46.00;;;;;;21066771;28;20031;-16
2020/12/12 04:56:03;;;;;;;7.40;5.18;;;19.80;45.90;;;;;;21084707;28;20031;-16
2020/12/12 05:06:03;;;;;;;6.70;5.50;;;19.70;46.00;;;;;;21067937;28;20035;-17
2020/12/12 05:16:04;;;;;;;9.95;5.25;;;19.60;46.00;;;;;;21067463;28;20032;-16
2020/12/12 05:26:05;;;;;;;8.07;5.13;;;19.70;46.00;;;;;;21067795;28;20507;-16
2020/12/12 05:36:06;;;;;;;6.82;5.57;;;19.60;46.00;;;;;;21066555;28;20032;-17
2020/12/12 05:46:06;;;;;;;9.98;5.90;;;19.50;45.80;;;;;;21067318;28;20027;-17
2020/12/12 05:56:07;;;;;;;7.75;5.40;;;19.50;46.10;;;;;;21066563;28;20063;-17
2020/12/12 06:06:09;;;;;;;9.82;5.20;;;19.40;45.90;;;;;;21074267;28;20085;-17
2020/12/12 06:16:14;;;;;;;8.55;5.07;;;19.40;45.90;;;;;;21081462;28;20073;-17
2020/12/12 06:26:20;;;;;;;6.57;5.15;;;19.40;45.70;;;;;;21079743;28;20028;-17
2020/12/12 06:36:30;;;;;;;6.55;5.47;;;19.30;46.00;;;;;;21078406;28;20028;-17
2020/12/12 06:46:53;;;;;;;8.23;6.53;;;19.30;45.70;;;;;;21077781;28;20032;-16
2020/12/12 06:56:54;;;;;;;9.82;6.20;;;19.30;45.30;;;;;;21077647;28;20096;-16
2020/12/12 07:07:03;;;;;;;7.78;5.95;;;19.20;45.40;;;;;;21076166;28;20052;-16
2020/12/12 07:17:05;;;;;;;7.20;5.07;;;19.20;45.80;;;;;;21074335;28;20031;-16
2020/12/12 07:27:06;;;;;;;7.10;5.00;;;19.50;45.40;;;;;;21055958;28;20020;-16
2020/12/12 07:37:10;;;;;;;9.38;4.70;;;20.20;43.90;;;;;;21073415;28;20040;-16
2020/12/12 07:47:12;;;;;;;7.10;3.72;;;21.00;42.20;;;;;;21074040;28;20016;-16
2020/12/12 07:57:14;;;;;;;6.20;3.28;;;21.70;40.80;;;;;;21072776;28;20028;-16
2020/12/12 08:07:19;;;;;;;10.15;3.50;;;22.40;40.00;;;;;;21072089;28;20036;-16
2020/12/12 08:17:20;;;;;;;5.53;3.47;;;23.00;39.00;;;;;;21069608;28;20066;-16
2020/12/12 08:27:28;;;;;;;8.30;3.58;;;23.50;38.30;;;;;;21070707;28;20024;-16
2020/12/12 08:37:28;;;;;;;11.23;3.83;;;24.00;38.30;;;;;;21069681;28;20111;-17
2020/12/12 08:47:29;;;;;;;7.80;3.58;;;24.00;38.80;;;;;;21045459;28;21056;-16
2020/12/12 08:57:30;;;;;;;12.57;4.00;;;23.70;39.60;;;;;;21050545;28;20555;-16
2020/12/12 09:07:30;;;;;;;11.68;7.13;;;23.30;40.30;;;;;;21050762;28;20036;-16
2020/12/12 09:17:31;;;;;;;23.63;13.25;;;22.80;41.40;;;;;;21051211;28;20503;-16
2020/12/12 09:27:31;;;;;;;20.83;11.85;;;22.50;41.40;;;;;;21048922;28;20184;-16
2020/12/12 09:37:32;;;;;;;17.75;9.98;;;22.00;39.70;;;;;;21057996;28;20032;-17
2020/12/12 09:47:33;;;;;;;17.77;8.48;;;21.40;38.50;;;;;;21072154;28;20428;-16
2020/12/12 09:57:33;;;;;;;14.90;7.50;;;21.50;39.30;;;;;;21056623;28;20020;-16
2020/12/12 10:07:34;;;;;;;17.90;8.60;;;21.90;39.80;;;;;;21046137;28;20124;-16
2020/12/12 10:17:34;;;;;;;13.48;8.52;;;22.60;39.50;;;;;;21060482;28;20049;-16
2020/12/12 10:27:36;;;;;;;14.63;5.18;;;23.30;38.90;;;;;;21043801;28;20115;-16
2020/12/12 10:37:37;;;;;;;17.38;6.47;;;23.60;38.70;;;;;;21044419;28;20067;-17
2020/12/12 10:47:38;;;;;;;16.20;5.65;;;24.10;38.40;;;;;;21077301;28;20028;-15
2020/12/12 10:57:38;;;;;;;27.33;6.43;;;24.50;38.20;;;;;;21076949;28;20480;-17
2020/12/12 11:07:39;;;;;;;29.95;5.80;;;24.30;39.60;;;;;;21077500;28;20508;-15
2020/12/12 11:17:39;;;;;;;23.83;5.88;;;24.10;40.60;;;;;;21074034;28;20035;-17
2020/12/12 11:27:40;;;;;;;36.95;6.45;;;24.00;42.40;;;;;;21076570;28;20028;-17
2020/12/12 11:47:43;;;;;;;20.15;6.32;;;23.70;44.40;;;;;;21049785;28;20028;-16
2020/12/12 11:57:43;;;;;;;19.23;5.78;;;23.60;44.80;;;;;;21053741;28;20027;-16
2020/12/12 12:07:47;;;;;;;10.15;4.75;;;23.60;45.10;;;;;;21051247;28;20088;-16
2020/12/12 12:17:47;;;;;;;11.90;5.90;;;23.40;45.70;;;;;;21053579;28;20484;-16
2020/12/12 12:27:48;;;;;;;34.65;15.82;;;23.40;46.00;;;;;;21051502;28;20028;-16
2020/12/12 12:37:48;;;;;;;29.75;13.70;;;23.20;46.50;;;;;;21060729;28;20081;-16
2020/12/12 12:47:49;;;;;;;26.70;12.07;;;23.20;46.50;;;;;;21062857;28;20056;-16
2020/12/12 12:57:49;;;;;;;33.13;12.02;;;23.10;46.90;;;;;;21055984;28;20847;-16
2020/12/12 13:07:50;;;;;;;30.65;10.95;;;23.10;46.80;;;;;;21048384;28;20035;-16
2020/12/12 13:17:50;;;;;;;31.08;11.02;;;23.20;47.10;;;;;;21072090;28;20046;-16
2020/12/12 13:28:01;;;;;;;41.00;13.10;;;23.40;46.90;;;;;;21065736;28;20024;-16
2020/12/12 13:38:02;;;;;;;44.65;13.60;;;23.30;47.50;;;;;;21066553;28;20458;-17
2020/12/12 13:48:02;;;;;;;23.17;11.38;;;23.40;46.90;;;;;;21080290;28;20048;-16
2020/12/12 13:58:04;;;;;;;28.47;10.37;;;23.40;47.30;;;;;;21081330;28;20032;-16
2020/12/12 14:08:04;;;;;;;20.73;8.82;;;23.40;47.20;;;;;;21080711;28;20544;-17
2020/12/12 14:28:25;;;;;;;30.17;8.25;;;23.20;47.70;;;;;;21077186;28;20040;-16
2020/12/12 14:38:25;;;;;;;17.42;6.78;;;23.20;47.70;;;;;;21076470;28;20115;-16
2020/12/12 14:48:26;;;;;;;27.33;8.52;;;23.20;47.80;;;;;;21079054;28;20063;-16
2020/12/12 14:58:26;;;;;;;14.67;6.90;;;23.30;48.20;;;;;;21078743;28;20041;-16
2020/12/12 15:08:27;;;;;;;18.85;7.13;;;23.20;47.70;;;;;;21062447;28;20482;-16
2020/12/12 15:18:28;;;;;;;12.80;6.75;;;23.30;47.30;;;;;;21073503;28;20564;-16
2020/12/12 15:28:28;;;;;;;22.00;6.80;;;23.10;47.70;;;;;;21073741;28;20039;-16
2020/12/12 15:38:29;;;;;;;43.53;8.20;;;23.20;47.30;;;;;;21054771;28;20115;-16
2020/12/12 15:48:29;;;;;;;11.77;5.32;;;23.10;47.60;;;;;;21055249;28;20481;-16
2020/12/12 15:58:30;;;;;;;13.00;7.10;;;23.40;47.00;;;;;;21073465;28;20024;-17
2020/12/12 16:08:30;;;;;;;14.75;6.40;;;23.40;46.90;;;;;;21072019;28;20027;-17
2020/12/12 16:18:31;;;;;;;14.45;6.40;;;23.50;46.00;;;;;;21071666;28;20494;-17
2020/12/12 16:28:31;;;;;;;10.60;6.70;;;23.60;47.30;;;;;;21083254;28;20082;-15
2020/12/12 16:38:32;;;;;;;15.40;6.50;;;23.70;47.00;;;;;;21071621;28;20462;-15
2020/12/12 16:48:33;;;;;;;22.95;8.48;;;23.50;45.80;;;;;;21082417;28;20032;-16
2020/12/12 16:58:33;;;;;;;18.38;10.23;;;23.50;46.40;;;;;;21068303;28;20056;-16
2020/12/12 17:08:34;;;;;;;34.25;8.95;;;23.50;47.30;;;;;;21068160;28;20024;-15
2020/12/12 17:18:34;;;;;;;28.13;12.93;;;23.40;46.90;;;;;;21067944;28;20032;-15
2020/12/12 17:28:35;;;;;;;27.40;13.48;;;23.20;46.00;;;;;;21067258;28;20115;-16
2020/12/12 17:38:35;;;;;;;30.83;12.27;;;23.10;46.10;;;;;;21068006;28;20040;-17
2020/12/12 17:48:36;;;;;;;30.25;11.38;;;23.20;46.60;;;;;;21067719;28;20035;-16
2020/12/12 17:58:37;;;;;;;37.47;12.20;;;23.00;46.80;;;;;;21069836;28;20020;-16
2020/12/12 18:08:38;;;;;;;42.03;16.30;;;23.00;46.90;;;;;;21084304;28;20028;-17
2020/12/12 18:18:38;;;;;;;36.83;14.38;;;22.90;47.00;;;;;;21084278;28;20032;-16
2020/12/12 18:28:39;;;;;;;29.48;12.85;;;23.00;47.20;;;;;;21082248;28;20035;-17
2020/12/12 18:38:43;;;;;;;39.58;11.77;;;23.10;47.30;;;;;;21080362;28;20432;-16
2020/12/12 18:48:43;;;;;;;40.97;15.18;;;22.90;47.70;;;;;;21076433;28;20391;-16
2020/12/12 18:58:44;;;;;;;42.17;12.40;;;23.10;47.70;;;;;;21099428;28;20020;-16
2020/12/12 19:08:45;;;;;;;35.47;12.95;;;23.10;48.80;;;;;;21085927;28;20178;-16
2020/12/12 19:18:45;;;;;;;30.55;12.07;;;23.40;48.70;;;;;;21075172;28;20067;-16
2020/12/12 19:28:46;;;;;;;27.02;10.93;;;23.40;48.80;;;;;;21074938;28;20093;-16
2020/12/12 19:38:46;;;;;;;27.38;9.63;;;23.50;48.40;;;;;;21057628;28;20118;-17
2020/12/12 19:48:48;;;;;;;34.93;12.67;;;23.40;48.10;;;;;;21061014;28;20569;-17
2020/12/12 19:58:49;;;;;;;26.73;8.95;;;23.40;47.80;;;;;;21077699;28;20478;-17
2020/12/12 20:08:50;;;;;;;25.80;10.27;;;23.30;48.10;;;;;;21070447;28;20032;-17
2020/12/12 20:18:50;;;;;;;26.33;10.05;;;23.30;47.90;;;;;;21073820;28;20028;-17
2020/12/12 20:28:52;;;;;;;52.80;12.35;;;23.20;48.20;;;;;;21070270;28;20035;-18
2020/12/12 20:38:54;;;;;;;26.92;10.95;;;23.20;48.20;;;;;;21040288;28;20510;-17
2020/12/12 20:48:54;;;;;;;39.47;10.55;;;23.10;48.10;;;;;;21070516;28;20085;-17
2020/12/12 20:58:55;;;;;;;37.38;8.98;;;23.00;48.30;;;;;;21056089;28;20024;-16
2020/12/12 21:08:56;;;;;;;25.20;9.18;;;23.10;48.30;;;;;;21074606;28;20023;-17
2020/12/12 21:18:57;;;;;;;23.17;9.88;;;23.00;48.20;;;;;;21071099;28;20024;-16
2020/12/12 21:28:57;;;;;;;26.67;8.07;;;23.10;47.80;;;;;;21056277;28;20069;-17
2020/12/12 21:38:59;;;;;;;25.83;9.07;;;22.90;47.80;;;;;;21086501;28;20040;-17
2020/12/12 21:49:00;;;;;;;22.48;7.75;;;23.10;47.80;;;;;;21089151;28;20032;-17
2020/12/12 21:59:00;;;;;;;18.02;7.95;;;22.90;47.90;;;;;;21088373;28;20416;-17
2020/12/12 22:09:02;;;;;;;19.00;8.80;;;22.80;48.20;;;;;;21128456;22;20491;-17
2020/12/12 22:19:03;;;;;;;16.17;7.65;;;22.50;48.60;;;;;;21167170;28;20023;-17
2020/12/12 22:29:04;;;;;;;35.75;25.55;;;22.30;49.00;;;;;;21165623;28;20043;-18
2020/12/12 22:39:05;;;;;;;37.78;27.05;;;22.10;49.60;;;;;;21133999;28;20024;-18
2020/12/12 22:49:05;;;;;;;32.17;24.70;;;22.00;50.10;;;;;;21120663;28;20082;-17
2020/12/12 22:59:06;;;;;;;29.05;21.55;;;22.00;50.00;;;;;;21157976;28;20457;-15
2020/12/12 23:09:07;;;;;;;21.92;16.77;;;22.50;49.40;;;;;;21182146;27;20023;-17
2020/12/12 23:19:07;;;;;;;18.98;14.15;;;23.20;47.80;;;;;;21230528;27;20486;-16
2020/12/12 23:29:08;;;;;;;20.35;13.60;;;24.00;46.30;;;;;;21229309;27;20034;-16
2020/12/12 23:39:09;;;;;;;16.58;11.55;;;24.70;45.20;;;;;;21227093;27;20068;-16
2020/12/12 23:49:09;;;;;;;14.27;10.43;;;25.00;44.30;;;;;;21208163;27;20434;-18
2020/12/12 23:59:10;;;;;;;12.13;9.35;;;24.70;44.70;;;;;;21224108;27;20602;-17
